sensor_id;sensor_type;location;lat;lon;timestamp;temperature;humidity
18541;DHT22;9400;50.924;5.328;2023-07-24T00:01:59;18.70;99.90
18541;DHT22;9400;50.924;5.328;2023-07-24T00:04:30;18.90;99.90
18541;DHT22;9400;50.924;5.328;2023-07-24T00:06:58;18.90;99.90
18541;DHT22;9400;50.924;5.328;2023-07-24T00:09:26;18.90;99.90
18541;DHT22;9400;50.924;5.328;2023-07-24T00:11:53;18.80;99.90
18541;DHT22;9400;50.924;5.328;2023-07-24T00:14:21;18.80;99.90
18541;DHT22;9400;50.924;5.328;2023-07-24T00:16:48;18.80;99.90
18541;DHT22;9400;50.924;5.328;2023-07-24T00:19:16;18.90;99.90
18541;DHT22;9400;50.924;5.328;2023-07-24T00:21:46;18.90;99.90
18541;DHT22;9400;50.924;5.328;2023-07-24T00:24:13;18.90;99.90
18541;DHT22;9400;50.924;5.328;2023-07-24T00:26:41;18.90;99.90
18541;DHT22;9400;50.924;5.328;2023-07-24T00:29:08;18.80;99.90
18541;DHT22;9400;50.924;5.328;2023-07-24T00:31:36;18.80;99.90
18541;DHT22;9400;50.924;5.328;2023-07-24T00:34:04;18.80;99.90
18541;DHT22;9400;50.924;5.328;2023-07-24T00:36:31;18.90;99.90
18541;DHT22;9400;50.924;5.328;2023-07-24T00:39:00;18.90;99.90
18541;DHT22;9400;50.924;5.328;2023-07-24T00:41:28;18.90;99.90
18541;DHT22;9400;50.924;5.328;2023-07-24T00:43:55;19.00;99.90
18541;DHT22;9400;50.924;5.328;2023-07-24T00:46:23;19.00;99.90
18541;DHT22;9400;50.924;5.328;2023-07-24T00:48:52;19.00;99.90
18541;DHT22;9400;50.924;5.328;2023-07-24T00:51:20;19.00;99.90
18541;DHT22;9400;50.924;5.328;2023-07-24T00:53:47;19.00;99.90
18541;DHT22;9400;50.924;5.328;2023-07-24T00:56:16;19.00;99.90
18541;DHT22;9400;50.924;5.328;2023-07-24T00:58:44;19.00;99.90
18541;DHT22;9400;50.924;5.328;2023-07-24T01:01:12;19.00;99.90
18541;DHT22;9400;50.924;5.328;2023-07-24T01:03:40;19.00;99.90
18541;DHT22;9400;50.924;5.328;2023-07-24T01:06:09;19.00;99.90
18541;DHT22;9400;50.924;5.328;2023-07-24T01:08:37;19.00;99.90
18541;DHT22;9400;50.924;5.328;2023-07-24T01:11:09;19.00;99.90
18541;DHT22;9400;50.924;5.328;2023-07-24T01:13:49;19.00;99.90
18541;DHT22;9400;50.924;5.328;2023-07-24T01:16:19;19.00;99.90
18541;DHT22;9400;50.924;5.328;2023-07-24T01:18:50;19.00;99.90
18541;DHT22;9400;50.924;5.328;2023-07-24T01:21:23;19.00;99.90
18541;DHT22;9400;50.924;5.328;2023-07-24T01:24:07;19.00;99.90
18541;DHT22;9400;50.924;5.328;2023-07-24T01:26:42;19.00;99.90
18541;DHT22;9400;50.924;5.328;2023-07-24T01:29:09;19.00;99.90
18541;DHT22;9400;50.924;5.328;2023-07-24T01:31:36;19.10;99.90
18541;DHT22;9400;50.924;5.328;2023-07-24T01:34:04;19.10;99.90
18541;DHT22;9400;50.924;5.328;2023-07-24T01:36:32;19.10;99.90
18541;DHT22;9400;50.924;5.328;2023-07-24T01:38:59;19.10;99.90
18541;DHT22;9400;50.924;5.328;2023-07-24T01:41:28;19.10;99.90
18541;DHT22;9400;50.924;5.328;2023-07-24T01:43:59;19.10;99.90
18541;DHT22;9400;50.924;5.328;2023-07-24T01:46:26;19.10;99.90
18541;DHT22;9400;50.924;5.328;2023-07-24T01:48:54;19.10;99.90
18541;DHT22;9400;50.924;5.328;2023-07-24T01:51:22;19.10;99.90
18541;DHT22;9400;50.924;5.328;2023-07-24T01:53:49;19.10;99.90
18541;DHT22;9400;50.924;5.328;2023-07-24T01:56:16;19.10;99.90
18541;DHT22;9400;50.924;5.328;2023-07-24T01:58:44;19.10;99.90
18541;DHT22;9400;50.924;5.328;2023-07-24T02:01:13;19.00;99.90
18541;DHT22;9400;50.924;5.328;2023-07-24T02:03:41;18.90;99.90
18541;DHT22;9400;50.924;5.328;2023-07-24T02:06:09;18.90;99.90
18541;DHT22;9400;50.924;5.328;2023-07-24T02:08:36;18.90;99.90
18541;DHT22;9400;50.924;5.328;2023-07-24T02:11:04;18.80;99.90
18541;DHT22;9400;50.924;5.328;2023-07-24T02:13:31;18.70;99.90
18541;DHT22;9400;50.924;5.328;2023-07-24T02:15:59;18.70;99.90
18541;DHT22;9400;50.924;5.328;2023-07-24T02:18:29;18.70;99.90
18541;DHT22;9400;50.924;5.328;2023-07-24T02:20:57;18.70;99.90
18541;DHT22;9400;50.924;5.328;2023-07-24T02:23:24;18.60;99.90
18541;DHT22;9400;50.924;5.328;2023-07-24T02:25:52;18.60;99.90
18541;DHT22;9400;50.924;5.328;2023-07-24T02:28:20;18.60;99.90
18541;DHT22;9400;50.924;5.328;2023-07-24T02:30:48;18.60;99.90
18541;DHT22;9400;50.924;5.328;2023-07-24T02:33:17;18.60;99.90
18541;DHT22;9400;50.924;5.328;2023-07-24T02:35:47;18.60;99.90
18541;DHT22;9400;50.924;5.328;2023-07-24T02:38:14;18.60;99.90
18541;DHT22;9400;50.924;5.328;2023-07-24T02:40:42;18.60;99.90
18541;DHT22;9400;50.924;5.328;2023-07-24T02:43:09;18.60;99.90
18541;DHT22;9400;50.924;5.328;2023-07-24T02:45:37;18.60;99.90
18541;DHT22;9400;50.924;5.328;2023-07-24T02:48:05;18.60;99.90
18541;DHT22;9400;50.924;5.328;2023-07-24T02:50:32;18.60;99.90
18541;DHT22;9400;50.924;5.328;2023-07-24T02:53:01;18.60;99.90
18541;DHT22;9400;50.924;5.328;2023-07-24T02:55:30;18.60;99.90
18541;DHT22;9400;50.924;5.328;2023-07-24T02:57:57;18.50;99.90
18541;DHT22;9400;50.924;5.328;2023-07-24T03:00:26;18.50;99.90
18541;DHT22;9400;50.924;5.328;2023-07-24T03:02:53;18.50;99.90
18541;DHT22;9400;50.924;5.328;2023-07-24T03:05:21;18.50;99.90
18541;DHT22;9400;50.924;5.328;2023-07-24T03:07:48;18.40;99.90
18541;DHT22;9400;50.924;5.328;2023-07-24T03:10:18;18.40;99.90
18541;DHT22;9400;50.924;5.328;2023-07-24T03:12:45;18.40;99.90
18541;DHT22;9400;50.924;5.328;2023-07-24T03:15:13;18.40;99.90
18541;DHT22;9400;50.924;5.328;2023-07-24T03:17:40;18.40;99.90
18541;DHT22;9400;50.924;5.328;2023-07-24T03:20:09;18.40;99.90
18541;DHT22;9400;50.924;5.328;2023-07-24T03:22:37;18.40;99.90
18541;DHT22;9400;50.924;5.328;2023-07-24T03:25:05;18.40;99.90
18541;DHT22;9400;50.924;5.328;2023-07-24T03:27:34;18.30;99.90
18541;DHT22;9400;50.924;5.328;2023-07-24T03:30:02;18.40;99.90
18541;DHT22;9400;50.924;5.328;2023-07-24T03:32:30;18.40;99.90
18541;DHT22;9400;50.924;5.328;2023-07-24T03:34:57;18.40;99.90
18541;DHT22;9400;50.924;5.328;2023-07-24T03:37:25;18.40;99.90
18541;DHT22;9400;50.924;5.328;2023-07-24T03:39:53;18.40;99.90
18541;DHT22;9400;50.924;5.328;2023-07-24T03:42:26;18.40;99.90
18541;DHT22;9400;50.924;5.328;2023-07-24T03:44:56;18.40;99.90
18541;DHT22;9400;50.924;5.328;2023-07-24T03:47:24;18.40;99.90
18541;DHT22;9400;50.924;5.328;2023-07-24T03:49:52;18.40;99.90
18541;DHT22;9400;50.924;5.328;2023-07-24T03:52:19;18.40;99.90
18541;DHT22;9400;50.924;5.328;2023-07-24T03:54:50;18.50;99.90
18541;DHT22;9400;50.924;5.328;2023-07-24T03:57:18;18.40;99.90
18541;DHT22;9400;50.924;5.328;2023-07-24T03:59:46;18.40;99.90
18541;DHT22;9400;50.924;5.328;2023-07-24T04:02:15;18.30;99.90
18541;DHT22;9400;50.924;5.328;2023-07-24T04:04:43;18.40;99.90
18541;DHT22;9400;50.924;5.328;2023-07-24T04:07:10;18.40;99.90
18541;DHT22;9400;50.924;5.328;2023-07-24T04:09:38;18.40;99.90
18541;DHT22;9400;50.924;5.328;2023-07-24T04:12:06;18.30;99.90
18541;DHT22;9400;50.924;5.328;2023-07-24T04:14:33;18.30;99.90
18541;DHT22;9400;50.924;5.328;2023-07-24T04:17:01;18.30;99.90
18541;DHT22;9400;50.924;5.328;2023-07-24T04:19:29;18.30;99.90
18541;DHT22;9400;50.924;5.328;2023-07-24T04:21:57;18.30;99.90
18541;DHT22;9400;50.924;5.328;2023-07-24T04:24:25;18.30;99.90
18541;DHT22;9400;50.924;5.328;2023-07-24T04:26:53;18.30;99.90
18541;DHT22;9400;50.924;5.328;2023-07-24T04:29:20;18.40;99.90
18541;DHT22;9400;50.924;5.328;2023-07-24T04:31:50;18.30;99.90
18541;DHT22;9400;50.924;5.328;2023-07-24T04:34:17;18.30;99.90
18541;DHT22;9400;50.924;5.328;2023-07-24T04:36:47;18.30;99.90
18541;DHT22;9400;50.924;5.328;2023-07-24T04:39:15;18.30;99.90
18541;DHT22;9400;50.924;5.328;2023-07-24T04:41:42;18.30;99.90
18541;DHT22;9400;50.924;5.328;2023-07-24T04:44:10;18.30;99.90
18541;DHT22;9400;50.924;5.328;2023-07-24T04:46:51;18.30;99.90
18541;DHT22;9400;50.924;5.328;2023-07-24T04:49:32;18.40;99.90
18541;DHT22;9400;50.924;5.328;2023-07-24T04:52:30;18.40;99.90
18541;DHT22;9400;50.924;5.328;2023-07-24T04:55:11;18.40;99.90
18541;DHT22;9400;50.924;5.328;2023-07-24T04:57:40;18.40;99.90
18541;DHT22;9400;50.924;5.328;2023-07-24T05:00:09;18.60;99.90
18541;DHT22;9400;50.924;5.328;2023-07-24T05:02:50;18.70;99.90
18541;DHT22;9400;50.924;5.328;2023-07-24T05:05:18;18.70;99.90
18541;DHT22;9400;50.924;5.328;2023-07-24T05:07:47;18.80;99.90
18541;DHT22;9400;50.924;5.328;2023-07-24T05:10:15;18.80;99.90
18541;DHT22;9400;50.924;5.328;2023-07-24T05:12:42;18.80;99.90
18541;DHT22;9400;50.924;5.328;2023-07-24T05:15:10;18.90;99.90
18541;DHT22;9400;50.924;5.328;2023-07-24T05:17:37;19.00;99.90
18541;DHT22;9400;50.924;5.328;2023-07-24T05:20:06;18.90;99.90
18541;DHT22;9400;50.924;5.328;2023-07-24T05:22:34;18.80;99.90
18541;DHT22;9400;50.924;5.328;2023-07-24T05:25:03;18.70;99.90
18541;DHT22;9400;50.924;5.328;2023-07-24T05:27:31;18.60;99.90
18541;DHT22;9400;50.924;5.328;2023-07-24T05:29:58;18.60;99.90
18541;DHT22;9400;50.924;5.328;2023-07-24T05:32:26;18.50;99.90
18541;DHT22;9400;50.924;5.328;2023-07-24T05:34:54;18.40;99.90
18541;DHT22;9400;50.924;5.328;2023-07-24T05:37:21;18.40;99.90
18541;DHT22;9400;50.924;5.328;2023-07-24T05:39:49;18.40;99.90
18541;DHT22;9400;50.924;5.328;2023-07-24T05:42:18;18.40;99.90
18541;DHT22;9400;50.924;5.328;2023-07-24T05:44:46;18.40;99.90
18541;DHT22;9400;50.924;5.328;2023-07-24T05:47:13;18.40;99.90
18541;DHT22;9400;50.924;5.328;2023-07-24T05:49:41;18.30;99.90
18541;DHT22;9400;50.924;5.328;2023-07-24T05:52:08;18.30;99.90
18541;DHT22;9400;50.924;5.328;2023-07-24T05:54:36;18.20;99.90
18541;DHT22;9400;50.924;5.328;2023-07-24T05:57:04;18.10;99.90
18541;DHT22;9400;50.924;5.328;2023-07-24T05:59:33;18.20;99.90
18541;DHT22;9400;50.924;5.328;2023-07-24T06:02:00;18.20;99.90
18541;DHT22;9400;50.924;5.328;2023-07-24T06:04:28;18.20;99.90
18541;DHT22;9400;50.924;5.328;2023-07-24T06:06:56;18.20;99.90
18541;DHT22;9400;50.924;5.328;2023-07-24T06:09:23;18.30;99.90
18541;DHT22;9400;50.924;5.328;2023-07-24T06:11:51;18.30;99.90
18541;DHT22;9400;50.924;5.328;2023-07-24T06:14:19;18.40;99.90
18541;DHT22;9400;50.924;5.328;2023-07-24T06:16:48;18.60;99.90
18541;DHT22;9400;50.924;5.328;2023-07-24T06:19:15;18.60;99.90
18541;DHT22;9400;50.924;5.328;2023-07-24T06:21:43;18.60;99.90
18541;DHT22;9400;50.924;5.328;2023-07-24T06:24:10;18.80;99.90
18541;DHT22;9400;50.924;5.328;2023-07-24T06:26:38;18.80;99.90
18541;DHT22;9400;50.924;5.328;2023-07-24T06:29:06;18.80;99.90
18541;DHT22;9400;50.924;5.328;2023-07-24T06:31:33;18.90;99.90
18541;DHT22;9400;50.924;5.328;2023-07-24T06:34:05;18.90;99.90
18541;DHT22;9400;50.924;5.328;2023-07-24T06:36:32;18.90;99.90
18541;DHT22;9400;50.924;5.328;2023-07-24T06:38:59;18.70;99.90
18541;DHT22;9400;50.924;5.328;2023-07-24T06:41:27;18.60;99.90
18541;DHT22;9400;50.924;5.328;2023-07-24T06:43:54;18.50;99.90
18541;DHT22;9400;50.924;5.328;2023-07-24T06:46:22;18.50;99.90
18541;DHT22;9400;50.924;5.328;2023-07-24T06:48:50;18.50;99.90
18541;DHT22;9400;50.924;5.328;2023-07-24T06:51:18;18.40;99.90
18541;DHT22;9400;50.924;5.328;2023-07-24T06:53:46;18.30;99.90
18541;DHT22;9400;50.924;5.328;2023-07-24T06:56:14;18.20;99.90
18541;DHT22;9400;50.924;5.328;2023-07-24T06:58:41;18.30;99.90
18541;DHT22;9400;50.924;5.328;2023-07-24T07:01:09;18.10;99.90
18541;DHT22;9400;50.924;5.328;2023-07-24T07:03:36;18.10;99.90
18541;DHT22;9400;50.924;5.328;2023-07-24T07:06:04;18.20;99.90
18541;DHT22;9400;50.924;5.328;2023-07-24T07:08:34;18.20;99.90
18541;DHT22;9400;50.924;5.328;2023-07-24T07:11:01;18.10;99.90
18541;DHT22;9400;50.924;5.328;2023-07-24T07:13:29;18.30;99.90
18541;DHT22;9400;50.924;5.328;2023-07-24T07:15:56;18.50;99.90
18541;DHT22;9400;50.924;5.328;2023-07-24T07:18:24;18.60;99.90
18541;DHT22;9400;50.924;5.328;2023-07-24T07:20:53;18.60;99.90
18541;DHT22;9400;50.924;5.328;2023-07-24T07:23:21;18.60;99.90
18541;DHT22;9400;50.924;5.328;2023-07-24T07:25:50;18.70;99.90
18541;DHT22;9400;50.924;5.328;2023-07-24T07:28:18;18.90;99.90
18541;DHT22;9400;50.924;5.328;2023-07-24T07:30:46;19.00;99.90
18541;DHT22;9400;50.924;5.328;2023-07-24T07:33:14;19.00;99.90
18541;DHT22;9400;50.924;5.328;2023-07-24T07:35:43;19.10;99.90
18541;DHT22;9400;50.924;5.328;2023-07-24T07:38:11;19.30;99.90
18541;DHT22;9400;50.924;5.328;2023-07-24T07:40:38;19.40;99.90
18541;DHT22;9400;50.924;5.328;2023-07-24T07:43:08;19.50;99.90
18541;DHT22;9400;50.924;5.328;2023-07-24T07:45:35;19.50;99.90
18541;DHT22;9400;50.924;5.328;2023-07-24T07:48:03;19.50;99.90
18541;DHT22;9400;50.924;5.328;2023-07-24T07:50:31;19.70;99.90
18541;DHT22;9400;50.924;5.328;2023-07-24T07:52:59;19.70;99.90
18541;DHT22;9400;50.924;5.328;2023-07-24T07:55:27;19.80;99.90
18541;DHT22;9400;50.924;5.328;2023-07-24T07:57:55;19.90;99.90
18541;DHT22;9400;50.924;5.328;2023-07-24T08:00:24;20.20;99.90
18541;DHT22;9400;50.924;5.328;2023-07-24T08:02:52;20.20;99.90
18541;DHT22;9400;50.924;5.328;2023-07-24T08:05:20;20.00;99.90
18541;DHT22;9400;50.924;5.328;2023-07-24T08:07:48;20.00;99.90
18541;DHT22;9400;50.924;5.328;2023-07-24T08:10:16;20.10;99.90
18541;DHT22;9400;50.924;5.328;2023-07-24T08:12:43;20.10;99.90
18541;DHT22;9400;50.924;5.328;2023-07-24T08:15:11;20.40;99.90
18541;DHT22;9400;50.924;5.328;2023-07-24T08:17:40;20.70;99.90
18541;DHT22;9400;50.924;5.328;2023-07-24T08:20:08;20.90;99.90
18541;DHT22;9400;50.924;5.328;2023-07-24T08:22:36;20.40;99.90
18541;DHT22;9400;50.924;5.328;2023-07-24T08:25:04;20.20;99.90
18541;DHT22;9400;50.924;5.328;2023-07-24T08:27:32;20.30;99.90
18541;DHT22;9400;50.924;5.328;2023-07-24T08:29:59;20.40;99.90
18541;DHT22;9400;50.924;5.328;2023-07-24T08:32:27;20.50;99.90
18541;DHT22;9400;50.924;5.328;2023-07-24T08:34:57;20.30;99.90
18541;DHT22;9400;50.924;5.328;2023-07-24T08:37:25;20.20;99.90
18541;DHT22;9400;50.924;5.328;2023-07-24T08:39:52;20.00;99.90
18541;DHT22;9400;50.924;5.328;2023-07-24T08:42:20;20.00;99.90
18541;DHT22;9400;50.924;5.328;2023-07-24T08:44:49;19.90;99.90
18541;DHT22;9400;50.924;5.328;2023-07-24T08:47:18;19.90;99.90
18541;DHT22;9400;50.924;5.328;2023-07-24T08:49:46;19.90;99.90
18541;DHT22;9400;50.924;5.328;2023-07-24T08:52:16;20.10;99.90
18541;DHT22;9400;50.924;5.328;2023-07-24T08:54:45;20.20;99.90
18541;DHT22;9400;50.924;5.328;2023-07-24T08:57:13;20.30;99.90
18541;DHT22;9400;50.924;5.328;2023-07-24T08:59:40;20.40;99.90
18541;DHT22;9400;50.924;5.328;2023-07-24T09:02:08;20.40;99.90
18541;DHT22;9400;50.924;5.328;2023-07-24T09:04:36;20.50;99.90
18541;DHT22;9400;50.924;5.328;2023-07-24T09:07:04;20.50;99.90
18541;DHT22;9400;50.924;5.328;2023-07-24T09:09:34;20.60;99.90
18541;DHT22;9400;50.924;5.328;2023-07-24T09:12:02;20.60;99.90
18541;DHT22;9400;50.924;5.328;2023-07-24T09:14:30;20.50;99.90
18541;DHT22;9400;50.924;5.328;2023-07-24T09:17:05;20.40;99.90
18541;DHT22;9400;50.924;5.328;2023-07-24T09:19:33;20.10;99.90
18541;DHT22;9400;50.924;5.328;2023-07-24T09:22:08;20.10;99.90
18541;DHT22;9400;50.924;5.328;2023-07-24T09:24:48;19.80;99.90
18541;DHT22;9400;50.924;5.328;2023-07-24T09:27:16;19.70;99.90
18541;DHT22;9400;50.924;5.328;2023-07-24T09:29:43;19.60;99.90
18541;DHT22;9400;50.924;5.328;2023-07-24T09:32:19;19.60;99.90
18541;DHT22;9400;50.924;5.328;2023-07-24T09:34:47;19.80;99.90
18541;DHT22;9400;50.924;5.328;2023-07-24T09:37:26;19.70;99.90
18541;DHT22;9400;50.924;5.328;2023-07-24T09:39:56;19.50;99.90
18541;DHT22;9400;50.924;5.328;2023-07-24T09:42:30;19.30;99.90
18541;DHT22;9400;50.924;5.328;2023-07-24T09:44:58;19.30;99.90
18541;DHT22;9400;50.924;5.328;2023-07-24T09:47:26;19.30;99.90
18541;DHT22;9400;50.924;5.328;2023-07-24T09:49:53;19.40;99.90
18541;DHT22;9400;50.924;5.328;2023-07-24T09:52:21;19.40;99.90
18541;DHT22;9400;50.924;5.328;2023-07-24T09:54:59;19.50;99.90
18541;DHT22;9400;50.924;5.328;2023-07-24T09:57:28;19.30;99.90
18541;DHT22;9400;50.924;5.328;2023-07-24T09:59:57;19.10;99.90
18541;DHT22;9400;50.924;5.328;2023-07-24T10:02:26;18.90;99.90
18541;DHT22;9400;50.924;5.328;2023-07-24T10:04:55;18.70;99.90
18541;DHT22;9400;50.924;5.328;2023-07-24T10:07:23;18.30;99.90
18541;DHT22;9400;50.924;5.328;2023-07-24T10:09:51;18.10;99.90
18541;DHT22;9400;50.924;5.328;2023-07-24T10:12:21;18.00;99.90
18541;DHT22;9400;50.924;5.328;2023-07-24T10:14:49;17.80;99.90
18541;DHT22;9400;50.924;5.328;2023-07-24T10:17:34;17.60;99.90
18541;DHT22;9400;50.924;5.328;2023-07-24T10:20:04;17.60;99.90
18541;DHT22;9400;50.924;5.328;2023-07-24T10:22:32;17.50;99.90
18541;DHT22;9400;50.924;5.328;2023-07-24T10:24:59;17.60;99.90
18541;DHT22;9400;50.924;5.328;2023-07-24T10:27:28;17.90;99.90
18541;DHT22;9400;50.924;5.328;2023-07-24T10:29:59;18.10;99.90
18541;DHT22;9400;50.924;5.328;2023-07-24T10:32:28;18.20;99.90
18541;DHT22;9400;50.924;5.328;2023-07-24T10:34:57;18.60;99.90
18541;DHT22;9400;50.924;5.328;2023-07-24T10:37:35;19.10;99.90
18541;DHT22;9400;50.924;5.328;2023-07-24T10:40:05;19.40;99.90
18541;DHT22;9400;50.924;5.328;2023-07-24T10:42:34;19.60;99.90
18541;DHT22;9400;50.924;5.328;2023-07-24T10:45:06;19.60;99.90
18541;DHT22;9400;50.924;5.328;2023-07-24T10:47:33;19.90;99.90
18541;DHT22;9400;50.924;5.328;2023-07-24T10:50:14;19.90;99.90
18541;DHT22;9400;50.924;5.328;2023-07-24T10:52:47;19.80;99.90
18541;DHT22;9400;50.924;5.328;2023-07-24T10:55:17;19.70;99.90
18541;DHT22;9400;50.924;5.328;2023-07-24T10:58:23;19.70;99.90
18541;DHT22;9400;50.924;5.328;2023-07-24T11:01:06;19.50;99.90
18541;DHT22;9400;50.924;5.328;2023-07-24T11:03:37;19.30;99.90
18541;DHT22;9400;50.924;5.328;2023-07-24T11:06:04;19.10;99.90
18541;DHT22;9400;50.924;5.328;2023-07-24T11:08:32;19.00;99.90
18541;DHT22;9400;50.924;5.328;2023-07-24T11:11:02;19.00;99.90
18541;DHT22;9400;50.924;5.328;2023-07-24T11:13:32;18.90;99.90
18541;DHT22;9400;50.924;5.328;2023-07-24T11:16:05;19.00;99.90
18541;DHT22;9400;50.924;5.328;2023-07-24T11:18:32;19.20;99.90
18541;DHT22;9400;50.924;5.328;2023-07-24T11:21:00;19.40;99.90
18541;DHT22;9400;50.924;5.328;2023-07-24T11:23:28;19.70;99.90
18541;DHT22;9400;50.924;5.328;2023-07-24T11:25:55;20.10;99.90
18541;DHT22;9400;50.924;5.328;2023-07-24T11:28:22;20.30;99.90
18541;DHT22;9400;50.924;5.328;2023-07-24T11:30:51;20.50;99.90
18541;DHT22;9400;50.924;5.328;2023-07-24T11:33:19;20.50;99.90
18541;DHT22;9400;50.924;5.328;2023-07-24T11:35:47;20.50;99.90
18541;DHT22;9400;50.924;5.328;2023-07-24T11:38:16;20.50;99.90
18541;DHT22;9400;50.924;5.328;2023-07-24T11:40:44;20.40;99.90
18541;DHT22;9400;50.924;5.328;2023-07-24T11:43:15;20.70;99.90
18541;DHT22;9400;50.924;5.328;2023-07-24T11:45:45;21.10;99.90
18541;DHT22;9400;50.924;5.328;2023-07-24T11:48:14;21.00;99.90
18541;DHT22;9400;50.924;5.328;2023-07-24T11:50:43;21.00;99.90
18541;DHT22;9400;50.924;5.328;2023-07-24T11:53:20;21.50;99.90
18541;DHT22;9400;50.924;5.328;2023-07-24T11:55:48;21.60;99.90
18541;DHT22;9400;50.924;5.328;2023-07-24T11:58:17;21.90;99.90
18541;DHT22;9400;50.924;5.328;2023-07-24T12:00:46;22.00;99.90
18541;DHT22;9400;50.924;5.328;2023-07-24T12:03:19;22.40;99.90
18541;DHT22;9400;50.924;5.328;2023-07-24T12:05:47;22.20;99.90
18541;DHT22;9400;50.924;5.328;2023-07-24T12:08:16;21.90;99.90
18541;DHT22;9400;50.924;5.328;2023-07-24T12:10:45;21.70;99.90
18541;DHT22;9400;50.924;5.328;2023-07-24T12:13:12;21.90;99.90
18541;DHT22;9400;50.924;5.328;2023-07-24T12:15:40;22.20;99.90
18541;DHT22;9400;50.924;5.328;2023-07-24T12:18:07;22.50;99.90
18541;DHT22;9400;50.924;5.328;2023-07-24T12:20:37;22.70;99.90
18541;DHT22;9400;50.924;5.328;2023-07-24T12:23:06;22.80;99.90
18541;DHT22;9400;50.924;5.328;2023-07-24T12:25:33;22.50;99.90
18541;DHT22;9400;50.924;5.328;2023-07-24T12:28:01;21.90;99.90
18541;DHT22;9400;50.924;5.328;2023-07-24T12:30:29;21.70;99.90
18541;DHT22;9400;50.924;5.328;2023-07-24T12:32:56;21.30;99.90
18541;DHT22;9400;50.924;5.328;2023-07-24T12:35:24;21.10;99.90
18541;DHT22;9400;50.924;5.328;2023-07-24T12:37:53;21.00;99.90
18541;DHT22;9400;50.924;5.328;2023-07-24T12:40:20;20.70;99.90
18541;DHT22;9400;50.924;5.328;2023-07-24T12:42:49;20.60;99.90
18541;DHT22;9400;50.924;5.328;2023-07-24T12:45:16;20.50;99.90
18541;DHT22;9400;50.924;5.328;2023-07-24T12:47:44;20.20;99.90
18541;DHT22;9400;50.924;5.328;2023-07-24T12:50:11;19.90;99.90
18541;DHT22;9400;50.924;5.328;2023-07-24T12:52:39;19.60;99.90
18541;DHT22;9400;50.924;5.328;2023-07-24T12:55:08;19.80;99.90
18541;DHT22;9400;50.924;5.328;2023-07-24T12:57:36;19.80;99.90
18541;DHT22;9400;50.924;5.328;2023-07-24T13:00:05;20.00;99.90
18541;DHT22;9400;50.924;5.328;2023-07-24T13:02:35;20.10;99.90
18541;DHT22;9400;50.924;5.328;2023-07-24T13:05:02;20.60;99.90
18541;DHT22;9400;50.924;5.328;2023-07-24T13:07:30;21.10;99.90
18541;DHT22;9400;50.924;5.328;2023-07-24T13:09:57;21.50;99.90
18541;DHT22;9400;50.924;5.328;2023-07-24T13:12:26;22.20;99.90
18541;DHT22;9400;50.924;5.328;2023-07-24T13:14:54;22.20;99.90
18541;DHT22;9400;50.924;5.328;2023-07-24T13:17:21;22.60;99.90
18541;DHT22;9400;50.924;5.328;2023-07-24T13:19:49;23.00;99.90
18541;DHT22;9400;50.924;5.328;2023-07-24T13:22:17;23.60;99.90
18541;DHT22;9400;50.924;5.328;2023-07-24T13:24:44;24.30;99.90
18541;DHT22;9400;50.924;5.328;2023-07-24T13:27:12;24.90;99.90
18541;DHT22;9400;50.924;5.328;2023-07-24T13:29:41;24.60;99.90
18541;DHT22;9400;50.924;5.328;2023-07-24T13:32:09;25.70;99.90
18541;DHT22;9400;50.924;5.328;2023-07-24T13:34:37;25.80;99.90
18541;DHT22;9400;50.924;5.328;2023-07-24T13:37:05;26.30;99.90
18541;DHT22;9400;50.924;5.328;2023-07-24T13:39:33;26.80;99.90
18541;DHT22;9400;50.924;5.328;2023-07-24T13:42:01;26.90;99.90
18541;DHT22;9400;50.924;5.328;2023-07-24T13:44:29;27.00;99.90
18541;DHT22;9400;50.924;5.328;2023-07-24T13:46:57;27.20;99.90
18541;DHT22;9400;50.924;5.328;2023-07-24T13:49:25;27.40;99.90
18541;DHT22;9400;50.924;5.328;2023-07-24T13:51:52;28.00;99.90
18541;DHT22;9400;50.924;5.328;2023-07-24T13:54:20;27.50;99.90
18541;DHT22;9400;50.924;5.328;2023-07-24T13:56:47;27.30;99.90
18541;DHT22;9400;50.924;5.328;2023-07-24T13:59:15;26.20;99.90
18541;DHT22;9400;50.924;5.328;2023-07-24T14:01:42;25.30;99.90
18541;DHT22;9400;50.924;5.328;2023-07-24T14:04:12;25.40;99.90
18541;DHT22;9400;50.924;5.328;2023-07-24T14:06:40;24.50;99.90
18541;DHT22;9400;50.924;5.328;2023-07-24T14:09:08;25.10;99.90
18541;DHT22;9400;50.924;5.328;2023-07-24T14:11:35;25.20;99.90
18541;DHT22;9400;50.924;5.328;2023-07-24T14:14:03;24.50;99.90
18541;DHT22;9400;50.924;5.328;2023-07-24T14:16:31;23.70;99.90
18541;DHT22;9400;50.924;5.328;2023-07-24T14:18:58;23.60;99.90
18541;DHT22;9400;50.924;5.328;2023-07-24T14:21:27;23.60;99.90
18541;DHT22;9400;50.924;5.328;2023-07-24T14:23:55;23.90;99.90
18541;DHT22;9400;50.924;5.328;2023-07-24T14:26:23;23.60;99.90
18541;DHT22;9400;50.924;5.328;2023-07-24T14:28:50;23.30;99.90
18541;DHT22;9400;50.924;5.328;2023-07-24T14:31:18;23.70;99.90
18541;DHT22;9400;50.924;5.328;2023-07-24T14:33:46;23.40;99.90
18541;DHT22;9400;50.924;5.328;2023-07-24T14:36:14;23.00;99.90
18541;DHT22;9400;50.924;5.328;2023-07-24T14:38:43;22.70;99.90
18541;DHT22;9400;50.924;5.328;2023-07-24T14:41:10;22.60;99.90
18541;DHT22;9400;50.924;5.328;2023-07-24T14:43:40;23.00;99.90
18541;DHT22;9400;50.924;5.328;2023-07-24T14:46:07;23.30;99.90
18541;DHT22;9400;50.924;5.328;2023-07-24T14:48:34;24.30;99.90
18541;DHT22;9400;50.924;5.328;2023-07-24T14:51:02;23.90;99.90
18541;DHT22;9400;50.924;5.328;2023-07-24T14:53:29;23.10;99.90
18541;DHT22;9400;50.924;5.328;2023-07-24T14:55:58;23.20;99.90
18541;DHT22;9400;50.924;5.328;2023-07-24T14:58:26;23.80;99.90
18541;DHT22;9400;50.924;5.328;2023-07-24T15:00:53;23.30;99.90
18541;DHT22;9400;50.924;5.328;2023-07-24T15:03:21;22.90;99.90
18541;DHT22;9400;50.924;5.328;2023-07-24T15:05:49;22.60;99.90
18541;DHT22;9400;50.924;5.328;2023-07-24T15:08:17;22.20;99.90
18541;DHT22;9400;50.924;5.328;2023-07-24T15:10:45;23.00;99.90
18541;DHT22;9400;50.924;5.328;2023-07-24T15:13:14;24.30;99.90
18541;DHT22;9400;50.924;5.328;2023-07-24T15:15:42;25.40;99.90
18541;DHT22;9400;50.924;5.328;2023-07-24T15:18:09;26.10;99.90
18541;DHT22;9400;50.924;5.328;2023-07-24T15:20:36;25.80;99.90
18541;DHT22;9400;50.924;5.328;2023-07-24T15:23:04;25.90;99.90
18541;DHT22;9400;50.924;5.328;2023-07-24T15:25:34;26.10;99.90
18541;DHT22;9400;50.924;5.328;2023-07-24T15:28:02;26.10;99.90
18541;DHT22;9400;50.924;5.328;2023-07-24T15:30:32;26.10;99.90
18541;DHT22;9400;50.924;5.328;2023-07-24T15:32:59;26.20;99.90
18541;DHT22;9400;50.924;5.328;2023-07-24T15:35:26;26.50;99.90
18541;DHT22;9400;50.924;5.328;2023-07-24T15:37:54;26.40;99.90
18541;DHT22;9400;50.924;5.328;2023-07-24T15:40:21;25.20;99.90
18541;DHT22;9400;50.924;5.328;2023-07-24T15:42:49;23.40;99.90
18541;DHT22;9400;50.924;5.328;2023-07-24T15:45:16;21.90;99.90
18541;DHT22;9400;50.924;5.328;2023-07-24T15:47:45;21.20;99.90
18541;DHT22;9400;50.924;5.328;2023-07-24T15:50:12;20.70;99.90
18541;DHT22;9400;50.924;5.328;2023-07-24T15:52:42;20.60;99.90
18541;DHT22;9400;50.924;5.328;2023-07-24T15:55:09;20.60;99.90